sensor_id;sensor_type;location;lat;lon;timestamp;P1;durP1;ratioP1;P2;durP2;ratioP2
4553;SDS011;2289;48.316;15.174;2023-03-04T00:02:02;15.60;;;11.03;;
4553;SDS011;2289;48.316;15.174;2023-03-04T00:04:31;14.27;;;10.27;;
4553;SDS011;2289;48.316;15.174;2023-03-04T00:07:00;19.33;;;10.47;;
4553;SDS011;2289;48.316;15.174;2023-03-04T00:09:28;21.00;;;12.43;;
4553;SDS011;2289;48.316;15.174;2023-03-04T00:11:57;20.10;;;10.77;;
4553;SDS011;2289;48.316;15.174;2023-03-04T00:14:27;20.00;;;11.43;;
4553;SDS011;2289;48.316;15.174;2023-03-04T00:16:56;27.23;;;13.57;;
4553;SDS011;2289;48.316;15.174;2023-03-04T00:19:24;25.83;;;14.80;;
4553;SDS011;2289;48.316;15.174;2023-03-04T00:21:53;18.60;;;11.10;;
4553;SDS011;2289;48.316;15.174;2023-03-04T00:24:24;24.63;;;11.20;;
4553;SDS011;2289;48.316;15.174;2023-03-04T00:26:53;20.87;;;10.27;;
4553;SDS011;2289;48.316;15.174;2023-03-04T00:29:22;23.73;;;12.17;;
4553;SDS011;2289;48.316;15.174;2023-03-04T00:31:52;18.67;;;13.10;;
4553;SDS011;2289;48.316;15.174;2023-03-04T00:34:21;19.10;;;11.23;;
4553;SDS011;2289;48.316;15.174;2023-03-04T00:36:50;18.77;;;12.60;;
4553;SDS011;2289;48.316;15.174;2023-03-04T00:39:19;23.47;;;12.30;;
4553;SDS011;2289;48.316;15.174;2023-03-04T00:41:47;20.47;;;11.90;;
4553;SDS011;2289;48.316;15.174;2023-03-04T00:44:16;16.07;;;10.70;;
4553;SDS011;2289;48.316;15.174;2023-03-04T00:46:45;18.40;;;11.63;;
4553;SDS011;2289;48.316;15.174;2023-03-04T00:49:15;17.87;;;11.73;;
4553;SDS011;2289;48.316;15.174;2023-03-04T00:51:43;17.33;;;11.30;;
4553;SDS011;2289;48.316;15.174;2023-03-04T00:54:12;16.90;;;11.83;;
4553;SDS011;2289;48.316;15.174;2023-03-04T00:56:41;20.27;;;12.43;;
4553;SDS011;2289;48.316;15.174;2023-03-04T00:59:09;17.83;;;10.40;;
4553;SDS011;2289;48.316;15.174;2023-03-04T01:01:37;19.53;;;12.43;;
4553;SDS011;2289;48.316;15.174;2023-03-04T01:04:06;16.80;;;11.83;;
4553;SDS011;2289;48.316;15.174;2023-03-04T01:06:36;18.80;;;11.17;;
4553;SDS011;2289;48.316;15.174;2023-03-04T01:09:05;16.87;;;10.63;;
4553;SDS011;2289;48.316;15.174;2023-03-04T01:11:34;17.90;;;11.53;;
4553;SDS011;2289;48.316;15.174;2023-03-04T01:14:02;19.03;;;12.20;;
4553;SDS011;2289;48.316;15.174;2023-03-04T01:16:31;20.30;;;10.70;;
4553;SDS011;2289;48.316;15.174;2023-03-04T01:19:00;16.17;;;10.83;;
4553;SDS011;2289;48.316;15.174;2023-03-04T01:21:29;22.70;;;11.83;;
4553;SDS011;2289;48.316;15.174;2023-03-04T01:23:59;19.30;;;12.43;;
4553;SDS011;2289;48.316;15.174;2023-03-04T01:26:28;16.07;;;10.53;;
4553;SDS011;2289;48.316;15.174;2023-03-04T01:28:57;15.83;;;11.23;;
4553;SDS011;2289;48.316;15.174;2023-03-04T01:31:25;17.90;;;10.33;;
4553;SDS011;2289;48.316;15.174;2023-03-04T01:33:54;19.90;;;12.23;;
4553;SDS011;2289;48.316;15.174;2023-03-04T01:36:23;14.93;;;11.17;;
4553;SDS011;2289;48.316;15.174;2023-03-04T01:39:25;16.87;;;10.20;;
4553;SDS011;2289;48.316;15.174;2023-03-04T01:41:54;18.97;;;10.63;;
4553;SDS011;2289;48.316;15.174;2023-03-04T01:44:23;20.93;;;11.50;;
4553;SDS011;2289;48.316;15.174;2023-03-04T01:46:52;19.77;;;11.87;;
4553;SDS011;2289;48.316;15.174;2023-03-04T01:49:21;19.13;;;11.83;;
4553;SDS011;2289;48.316;15.174;2023-03-04T01:51:50;21.37;;;13.80;;
4553;SDS011;2289;48.316;15.174;2023-03-04T01:54:21;18.10;;;11.33;;
4553;SDS011;2289;48.316;15.174;2023-03-04T01:56:53;22.60;;;12.20;;
4553;SDS011;2289;48.316;15.174;2023-03-04T01:59:23;24.07;;;10.77;;
4553;SDS011;2289;48.316;15.174;2023-03-04T02:01:52;15.00;;;10.40;;
4553;SDS011;2289;48.316;15.174;2023-03-04T02:04:24;16.20;;;10.53;;
4553;SDS011;2289;48.316;15.174;2023-03-04T02:06:55;18.03;;;11.60;;
4553;SDS011;2289;48.316;15.174;2023-03-04T02:09:23;25.83;;;13.63;;
4553;SDS011;2289;48.316;15.174;2023-03-04T02:11:53;18.60;;;12.43;;
4553;SDS011;2289;48.316;15.174;2023-03-04T02:14:22;18.47;;;11.90;;
4553;SDS011;2289;48.316;15.174;2023-03-04T02:16:51;22.23;;;11.87;;
4553;SDS011;2289;48.316;15.174;2023-03-04T02:19:22;21.37;;;12.33;;
4553;SDS011;2289;48.316;15.174;2023-03-04T02:21:58;22.47;;;12.27;;
4553;SDS011;2289;48.316;15.174;2023-03-04T02:24:28;17.40;;;11.33;;
4553;SDS011;2289;48.316;15.174;2023-03-04T02:27:01;21.30;;;11.07;;
4553;SDS011;2289;48.316;15.174;2023-03-04T02:29:30;19.90;;;11.47;;
4553;SDS011;2289;48.316;15.174;2023-03-04T02:31:58;19.23;;;12.23;;
4553;SDS011;2289;48.316;15.174;2023-03-04T02:34:30;16.90;;;10.90;;
4553;SDS011;2289;48.316;15.174;2023-03-04T02:37:00;16.37;;;11.10;;
4553;SDS011;2289;48.316;15.174;2023-03-04T02:39:30;27.47;;;12.80;;
4553;SDS011;2289;48.316;15.174;2023-03-04T02:42:03;21.93;;;11.97;;
4553;SDS011;2289;48.316;15.174;2023-03-04T02:48:10;21.83;;;11.67;;
4553;SDS011;2289;48.316;15.174;2023-03-04T02:50:41;22.40;;;11.83;;
4553;SDS011;2289;48.316;15.174;2023-03-04T02:53:10;18.43;;;11.30;;
4553;SDS011;2289;48.316;15.174;2023-03-04T02:55:39;20.93;;;12.93;;
4553;SDS011;2289;48.316;15.174;2023-03-04T02:58:10;17.77;;;11.80;;
4553;SDS011;2289;48.316;15.174;2023-03-04T03:00:41;20.70;;;11.67;;
4553;SDS011;2289;48.316;15.174;2023-03-04T03:03:13;18.13;;;11.60;;
4553;SDS011;2289;48.316;15.174;2023-03-04T03:05:41;23.63;;;13.60;;
4553;SDS011;2289;48.316;15.174;2023-03-04T03:08:10;22.03;;;11.10;;
4553;SDS011;2289;48.316;15.174;2023-03-04T03:10:39;22.10;;;12.40;;
4553;SDS011;2289;48.316;15.174;2023-03-04T03:13:11;21.00;;;11.97;;
4553;SDS011;2289;48.316;15.174;2023-03-04T03:15:44;21.83;;;13.90;;
4553;SDS011;2289;48.316;15.174;2023-03-04T03:18:15;18.90;;;12.00;;
4553;SDS011;2289;48.316;15.174;2023-03-04T03:20:44;24.80;;;12.27;;
4553;SDS011;2289;48.316;15.174;2023-03-04T03:23:12;18.33;;;13.03;;
4553;SDS011;2289;48.316;15.174;2023-03-04T03:25:57;23.23;;;13.30;;
4553;SDS011;2289;48.316;15.174;2023-03-04T03:28:27;21.43;;;11.97;;
4553;SDS011;2289;48.316;15.174;2023-03-04T03:30:58;23.20;;;13.63;;
4553;SDS011;2289;48.316;15.174;2023-03-04T03:33:27;26.80;;;14.10;;
4553;SDS011;2289;48.316;15.174;2023-03-04T03:35:55;24.33;;;13.40;;
4553;SDS011;2289;48.316;15.174;2023-03-04T03:38:24;22.60;;;13.70;;
4553;SDS011;2289;48.316;15.174;2023-03-04T03:40:53;25.47;;;14.00;;
4553;SDS011;2289;48.316;15.174;2023-03-04T03:43:22;22.40;;;13.93;;
4553;SDS011;2289;48.316;15.174;2023-03-04T03:45:52;27.07;;;14.63;;
4553;SDS011;2289;48.316;15.174;2023-03-04T03:48:20;25.80;;;15.73;;
4553;SDS011;2289;48.316;15.174;2023-03-04T03:50:49;29.10;;;15.37;;
4553;SDS011;2289;48.316;15.174;2023-03-04T03:53:17;23.70;;;15.40;;
4553;SDS011;2289;48.316;15.174;2023-03-04T03:55:46;32.73;;;14.83;;
4553;SDS011;2289;48.316;15.174;2023-03-04T03:58:14;26.80;;;14.77;;
4553;SDS011;2289;48.316;15.174;2023-03-04T04:00:43;27.40;;;16.53;;
4553;SDS011;2289;48.316;15.174;2023-03-04T04:03:14;29.27;;;16.33;;
4553;SDS011;2289;48.316;15.174;2023-03-04T04:05:46;29.90;;;15.90;;
4553;SDS011;2289;48.316;15.174;2023-03-04T04:08:15;27.53;;;15.67;;
4553;SDS011;2289;48.316;15.174;2023-03-04T04:10:44;26.63;;;16.33;;
4553;SDS011;2289;48.316;15.174;2023-03-04T04:13:12;31.90;;;15.33;;
4553;SDS011;2289;48.316;15.174;2023-03-04T04:15:41;31.50;;;15.80;;
4553;SDS011;2289;48.316;15.174;2023-03-04T04:18:14;34.70;;;18.33;;
4553;SDS011;2289;48.316;15.174;2023-03-04T04:20:43;30.07;;;16.00;;
4553;SDS011;2289;48.316;15.174;2023-03-04T04:23:12;36.63;;;18.40;;
4553;SDS011;2289;48.316;15.174;2023-03-04T04:25:43;34.37;;;17.87;;
4553;SDS011;2289;48.316;15.174;2023-03-04T04:28:15;28.53;;;16.87;;
4553;SDS011;2289;48.316;15.174;2023-03-04T04:30:45;23.37;;;14.00;;
4553;SDS011;2289;48.316;15.174;2023-03-04T04:33:18;30.10;;;17.07;;
4553;SDS011;2289;48.316;15.174;2023-03-04T04:35:46;38.20;;;18.90;;
4553;SDS011;2289;48.316;15.174;2023-03-04T04:38:15;38.90;;;17.50;;
4553;SDS011;2289;48.316;15.174;2023-03-04T04:40:44;29.23;;;14.67;;
4553;SDS011;2289;48.316;15.174;2023-03-04T04:43:13;41.60;;;19.53;;
4553;SDS011;2289;48.316;15.174;2023-03-04T04:45:41;40.50;;;20.10;;
4553;SDS011;2289;48.316;15.174;2023-03-04T04:48:11;32.60;;;19.00;;
4553;SDS011;2289;48.316;15.174;2023-03-04T04:50:44;27.57;;;17.20;;
4553;SDS011;2289;48.316;15.174;2023-03-04T04:53:13;31.77;;;18.27;;
4553;SDS011;2289;48.316;15.174;2023-03-04T04:56:06;31.80;;;18.83;;
4553;SDS011;2289;48.316;15.174;2023-03-04T04:58:36;41.33;;;20.20;;
4553;SDS011;2289;48.316;15.174;2023-03-04T05:01:06;40.80;;;20.40;;
4553;SDS011;2289;48.316;15.174;2023-03-04T05:03:35;31.13;;;18.07;;
4553;SDS011;2289;48.316;15.174;2023-03-04T05:06:07;37.50;;;20.97;;
4553;SDS011;2289;48.316;15.174;2023-03-04T05:08:38;34.07;;;20.73;;
4553;SDS011;2289;48.316;15.174;2023-03-04T05:11:08;31.23;;;19.70;;
4553;SDS011;2289;48.316;15.174;2023-03-04T05:13:36;45.00;;;24.87;;
4553;SDS011;2289;48.316;15.174;2023-03-04T05:16:05;37.23;;;21.40;;
4553;SDS011;2289;48.316;15.174;2023-03-04T05:18:34;33.50;;;19.90;;
4553;SDS011;2289;48.316;15.174;2023-03-04T05:21:05;40.73;;;22.00;;
4553;SDS011;2289;48.316;15.174;2023-03-04T05:23:36;44.20;;;24.10;;
4553;SDS011;2289;48.316;15.174;2023-03-04T05:26:07;44.83;;;23.60;;
4553;SDS011;2289;48.316;15.174;2023-03-04T05:28:37;37.70;;;23.27;;
4553;SDS011;2289;48.316;15.174;2023-03-04T05:31:07;43.40;;;23.40;;
4553;SDS011;2289;48.316;15.174;2023-03-04T05:33:36;41.47;;;22.70;;
4553;SDS011;2289;48.316;15.174;2023-03-04T05:36:07;57.13;;;28.47;;
4553;SDS011;2289;48.316;15.174;2023-03-04T05:38:36;45.50;;;24.30;;
4553;SDS011;2289;48.316;15.174;2023-03-04T05:41:05;48.40;;;27.27;;
4553;SDS011;2289;48.316;15.174;2023-03-04T05:43:35;45.23;;;22.63;;
4553;SDS011;2289;48.316;15.174;2023-03-04T05:46:08;46.83;;;24.67;;
4553;SDS011;2289;48.316;15.174;2023-03-04T05:48:43;45.40;;;28.00;;
4553;SDS011;2289;48.316;15.174;2023-03-04T05:51:13;52.17;;;26.80;;
4553;SDS011;2289;48.316;15.174;2023-03-04T05:53:42;46.97;;;23.57;;
4553;SDS011;2289;48.316;15.174;2023-03-04T05:56:11;54.00;;;28.00;;
4553;SDS011;2289;48.316;15.174;2023-03-04T05:58:41;51.10;;;26.87;;
4553;SDS011;2289;48.316;15.174;2023-03-04T06:01:10;40.87;;;26.10;;
4553;SDS011;2289;48.316;15.174;2023-03-04T06:03:41;54.40;;;26.77;;
4553;SDS011;2289;48.316;15.174;2023-03-04T06:06:15;53.40;;;27.20;;
4553;SDS011;2289;48.316;15.174;2023-03-04T06:08:44;39.47;;;25.10;;
4553;SDS011;2289;48.316;15.174;2023-03-04T06:11:15;52.63;;;25.57;;
4553;SDS011;2289;48.316;15.174;2023-03-04T06:13:44;50.33;;;27.40;;
4553;SDS011;2289;48.316;15.174;2023-03-04T06:16:12;50.23;;;26.20;;
4553;SDS011;2289;48.316;15.174;2023-03-04T06:18:41;45.33;;;26.90;;
4553;SDS011;2289;48.316;15.174;2023-03-04T06:21:10;50.97;;;27.53;;
4553;SDS011;2289;48.316;15.174;2023-03-04T06:23:42;51.83;;;29.07;;
4553;SDS011;2289;48.316;15.174;2023-03-04T06:26:10;53.37;;;28.77;;
4553;SDS011;2289;48.316;15.174;2023-03-04T06:28:41;50.50;;;27.20;;
4553;SDS011;2289;48.316;15.174;2023-03-04T06:31:10;48.67;;;27.70;;
4553;SDS011;2289;48.316;15.174;2023-03-04T06:33:38;47.90;;;28.63;;
4553;SDS011;2289;48.316;15.174;2023-03-04T06:36:07;48.43;;;28.10;;
4553;SDS011;2289;48.316;15.174;2023-03-04T06:38:36;62.93;;;30.23;;
4553;SDS011;2289;48.316;15.174;2023-03-04T06:41:07;54.47;;;28.33;;
4553;SDS011;2289;48.316;15.174;2023-03-04T06:43:45;50.07;;;27.73;;
4553;SDS011;2289;48.316;15.174;2023-03-04T06:46:14;47.40;;;29.20;;
4553;SDS011;2289;48.316;15.174;2023-03-04T06:48:43;49.87;;;29.40;;
4553;SDS011;2289;48.316;15.174;2023-03-04T06:51:13;46.83;;;28.47;;
4553;SDS011;2289;48.316;15.174;2023-03-04T06:53:42;45.80;;;26.20;;
4553;SDS011;2289;48.316;15.174;2023-03-04T06:56:12;48.13;;;27.10;;
4553;SDS011;2289;48.316;15.174;2023-03-04T06:58:43;56.93;;;31.33;;
4553;SDS011;2289;48.316;15.174;2023-03-04T07:01:12;45.50;;;30.07;;
4553;SDS011;2289;48.316;15.174;2023-03-04T07:03:41;56.83;;;31.00;;
4553;SDS011;2289;48.316;15.174;2023-03-04T07:06:13;51.23;;;27.27;;
4553;SDS011;2289;48.316;15.174;2023-03-04T07:08:44;47.50;;;29.50;;
4553;SDS011;2289;48.316;15.174;2023-03-04T07:14:13;43.47;;;26.87;;
4553;SDS011;2289;48.316;15.174;2023-03-04T07:16:42;51.17;;;26.93;;
4553;SDS011;2289;48.316;15.174;2023-03-04T07:19:10;46.37;;;27.40;;
4553;SDS011;2289;48.316;15.174;2023-03-04T07:21:39;43.97;;;25.43;;
4553;SDS011;2289;48.316;15.174;2023-03-04T07:24:08;44.17;;;25.30;;
4553;SDS011;2289;48.316;15.174;2023-03-04T07:26:37;41.83;;;26.63;;
4553;SDS011;2289;48.316;15.174;2023-03-04T07:29:07;40.53;;;24.07;;
4553;SDS011;2289;48.316;15.174;2023-03-04T07:31:36;39.17;;;24.70;;
4553;SDS011;2289;48.316;15.174;2023-03-04T07:34:08;36.30;;;23.67;;
4553;SDS011;2289;48.316;15.174;2023-03-04T07:36:38;42.03;;;24.17;;
4553;SDS011;2289;48.316;15.174;2023-03-04T07:39:08;37.50;;;23.20;;
4553;SDS011;2289;48.316;15.174;2023-03-04T07:41:39;33.97;;;20.73;;
4553;SDS011;2289;48.316;15.174;2023-03-04T07:44:09;37.83;;;21.80;;
4553;SDS011;2289;48.316;15.174;2023-03-04T07:46:39;37.50;;;21.47;;
4553;SDS011;2289;48.316;15.174;2023-03-04T07:49:10;38.90;;;22.03;;
4553;SDS011;2289;48.316;15.174;2023-03-04T07:51:39;37.23;;;21.40;;
4553;SDS011;2289;48.316;15.174;2023-03-04T07:54:08;32.83;;;20.20;;
4553;SDS011;2289;48.316;15.174;2023-03-04T07:56:39;31.87;;;19.60;;
4553;SDS011;2289;48.316;15.174;2023-03-04T07:59:09;28.67;;;16.60;;
4553;SDS011;2289;48.316;15.174;2023-03-04T08:01:41;26.50;;;16.87;;
4553;SDS011;2289;48.316;15.174;2023-03-04T08:04:12;28.13;;;17.23;;
4553;SDS011;2289;48.316;15.174;2023-03-04T08:06:41;26.30;;;17.70;;
4553;SDS011;2289;48.316;15.174;2023-03-04T08:09:10;24.77;;;15.60;;
4553;SDS011;2289;48.316;15.174;2023-03-04T08:11:39;26.80;;;17.63;;
4553;SDS011;2289;48.316;15.174;2023-03-04T08:14:11;26.37;;;15.10;;
4553;SDS011;2289;48.316;15.174;2023-03-04T08:16:40;25.00;;;16.43;;
4553;SDS011;2289;48.316;15.174;2023-03-04T08:19:09;30.70;;;15.47;;
4553;SDS011;2289;48.316;15.174;2023-03-04T08:21:41;28.70;;;16.23;;
4553;SDS011;2289;48.316;15.174;2023-03-04T08:24:11;26.57;;;13.37;;
4553;SDS011;2289;48.316;15.174;2023-03-04T08:26:40;25.43;;;15.20;;
4553;SDS011;2289;48.316;15.174;2023-03-04T08:29:12;26.40;;;11.43;;
4553;SDS011;2289;48.316;15.174;2023-03-04T08:31:42;24.20;;;13.70;;
4553;SDS011;2289;48.316;15.174;2023-03-04T08:34:15;20.07;;;11.53;;
4553;SDS011;2289;48.316;15.174;2023-03-04T08:36:44;25.87;;;13.70;;
4553;SDS011;2289;48.316;15.174;2023-03-04T08:39:13;19.80;;;12.17;;
4553;SDS011;2289;48.316;15.174;2023-03-04T08:41:43;23.70;;;12.13;;
4553;SDS011;2289;48.316;15.174;2023-03-04T08:44:18;20.90;;;11.93;;
4553;SDS011;2289;48.316;15.174;2023-03-04T08:46:46;17.70;;;11.37;;
4553;SDS011;2289;48.316;15.174;2023-03-04T08:49:15;28.40;;;13.17;;
4553;SDS011;2289;48.316;15.174;2023-03-04T08:51:44;20.50;;;12.83;;
4553;SDS011;2289;48.316;15.174;2023-03-04T08:54:13;18.97;;;11.03;;
4553;SDS011;2289;48.316;15.174;2023-03-04T08:56:42;23.67;;;11.63;;
4553;SDS011;2289;48.316;15.174;2023-03-04T08:59:11;22.10;;;11.80;;
4553;SDS011;2289;48.316;15.174;2023-03-04T09:01:41;19.30;;;11.27;;
4553;SDS011;2289;48.316;15.174;2023-03-04T09:04:09;28.70;;;12.23;;
4553;SDS011;2289;48.316;15.174;2023-03-04T09:06:38;18.37;;;11.83;;
4553;SDS011;2289;48.316;15.174;2023-03-04T09:09:07;27.33;;;11.57;;
4553;SDS011;2289;48.316;15.174;2023-03-04T09:11:36;22.20;;;12.70;;
4553;SDS011;2289;48.316;15.174;2023-03-04T09:14:07;18.60;;;10.80;;
4553;SDS011;2289;48.316;15.174;2023-03-04T09:16:36;20.53;;;12.47;;
4553;SDS011;2289;48.316;15.174;2023-03-04T09:19:08;27.93;;;14.30;;
4553;SDS011;2289;48.316;15.174;2023-03-04T09:21:37;19.80;;;13.10;;
4553;SDS011;2289;48.316;15.174;2023-03-04T09:24:06;17.47;;;12.20;;
4553;SDS011;2289;48.316;15.174;2023-03-04T09:26:35;20.47;;;13.30;;
4553;SDS011;2289;48.316;15.174;2023-03-04T09:29:03;17.53;;;12.70;;
4553;SDS011;2289;48.316;15.174;2023-03-04T09:31:32;20.80;;;13.43;;
4553;SDS011;2289;48.316;15.174;2023-03-04T09:34:01;18.13;;;12.27;;
4553;SDS011;2289;48.316;15.174;2023-03-04T09:36:31;22.70;;;14.40;;
4553;SDS011;2289;48.316;15.174;2023-03-04T09:39:00;21.37;;;12.83;;
4553;SDS011;2289;48.316;15.174;2023-03-04T09:41:30;25.03;;;14.03;;
4553;SDS011;2289;48.316;15.174;2023-03-04T09:44:04;21.37;;;13.00;;
4553;SDS011;2289;48.316;15.174;2023-03-04T09:46:40;21.30;;;13.93;;
4553;SDS011;2289;48.316;15.174;2023-03-04T09:49:10;19.13;;;12.70;;
4553;SDS011;2289;48.316;15.174;2023-03-04T09:51:57;20.83;;;13.17;;
4553;SDS011;2289;48.316;15.174;2023-03-04T09:54:33;21.63;;;15.90;;
4553;SDS011;2289;48.316;15.174;2023-03-04T09:57:18;22.27;;;15.23;;
4553;SDS011;2289;48.316;15.174;2023-03-04T09:59:56;21.33;;;14.80;;
4553;SDS011;2289;48.316;15.174;2023-03-04T10:02:36;26.30;;;16.27;;
4553;SDS011;2289;48.316;15.174;2023-03-04T10:05:10;26.00;;;15.13;;
4553;SDS011;2289;48.316;15.174;2023-03-04T10:07:47;23.20;;;17.50;;
4553;SDS011;2289;48.316;15.174;2023-03-04T10:10:18;23.47;;;17.57;;
4553;SDS011;2289;48.316;15.174;2023-03-04T10:12:54;22.20;;;16.73;;
4553;SDS011;2289;48.316;15.174;2023-03-04T10:15:32;29.47;;;16.07;;
4553;SDS011;2289;48.316;15.174;2023-03-04T10:18:06;23.40;;;15.47;;
4553;SDS011;2289;48.316;15.174;2023-03-04T10:20:43;24.43;;;16.03;;
4553;SDS011;2289;48.316;15.174;2023-03-04T10:23:19;23.87;;;14.77;;
4553;SDS011;2289;48.316;15.174;2023-03-04T10:25:49;26.87;;;15.40;;
4553;SDS011;2289;48.316;15.174;2023-03-04T10:28:20;25.10;;;15.93;;
4553;SDS011;2289;48.316;15.174;2023-03-04T10:30:52;25.27;;;14.70;;
4553;SDS011;2289;48.316;15.174;2023-03-04T10:33:26;19.50;;;13.07;;
4553;SDS011;2289;48.316;15.174;2023-03-04T10:35:59;19.70;;;12.70;;
4553;SDS011;2289;48.316;15.174;2023-03-04T10:38:33;17.50;;;12.20;;
4553;SDS011;2289;48.316;15.174;2023-03-04T10:41:09;19.83;;;12.77;;
4553;SDS011;2289;48.316;15.174;2023-03-04T10:43:39;21.70;;;14.60;;
4553;SDS011;2289;48.316;15.174;2023-03-04T10:46:11;18.63;;;12.40;;
4553;SDS011;2289;48.316;15.174;2023-03-04T10:48:40;20.47;;;12.87;;
4553;SDS011;2289;48.316;15.174;2023-03-04T10:51:12;20.33;;;14.73;;
4553;SDS011;2289;48.316;15.174;2023-03-04T10:53:46;19.07;;;12.73;;
4553;SDS011;2289;48.316;15.174;2023-03-04T10:56:29;17.33;;;13.57;;
4553;SDS011;2289;48.316;15.174;2023-03-04T11:02:00;19.90;;;13.33;;
4553;SDS011;2289;48.316;15.174;2023-03-04T11:04:34;18.27;;;14.00;;
4553;SDS011;2289;48.316;15.174;2023-03-04T11:07:08;15.20;;;11.00;;
4553;SDS011;2289;48.316;15.174;2023-03-04T11:09:42;13.43;;;9.63;;
4553;SDS011;2289;48.316;15.174;2023-03-04T11:12:14;16.93;;;10.60;;
4553;SDS011;2289;48.316;15.174;2023-03-04T11:14:45;13.77;;;10.47;;
4553;SDS011;2289;48.316;15.174;2023-03-04T11:17:16;15.23;;;10.53;;
4553;SDS011;2289;48.316;15.174;2023-03-04T11:19:48;12.93;;;9.33;;
4553;SDS011;2289;48.316;15.174;2023-03-04T11:22:23;14.60;;;9.40;;
4553;SDS011;2289;48.316;15.174;2023-03-04T11:24:58;15.40;;;10.47;;
4553;SDS011;2289;48.316;15.174;2023-03-04T11:27:35;11.57;;;9.00;;
4553;SDS011;2289;48.316;15.174;2023-03-04T11:30:15;12.20;;;8.50;;
4553;SDS011;2289;48.316;15.174;2023-03-04T11:32:59;10.87;;;8.17;;
4553;SDS011;2289;48.316;15.174;2023-03-04T11:38:36;12.87;;;9.73;;
4553;SDS011;2289;48.316;15.174;2023-03-04T11:41:10;11.30;;;9.53;;
4553;SDS011;2289;48.316;15.174;2023-03-04T11:43:45;13.87;;;10.47;;
4553;SDS011;2289;48.316;15.174;2023-03-04T11:52:18;19.13;;;11.73;;
4553;SDS011;2289;48.316;15.174;2023-03-04T11:54:59;20.07;;;10.70;;
4553;SDS011;2289;48.316;15.174;2023-03-04T11:57:36;15.40;;;9.73;;
4553;SDS011;2289;48.316;15.174;2023-03-04T12:00:19;13.90;;;8.50;;
4553;SDS011;2289;48.316;15.174;2023-03-04T12:05:57;16.50;;;10.97;;
4553;SDS011;2289;48.316;15.174;2023-03-04T12:08:52;14.87;;;10.00;;
4553;SDS011;2289;48.316;15.174;2023-03-04T12:11:37;18.53;;;11.60;;
4553;SDS011;2289;48.316;15.174;2023-03-04T12:14:19;16.77;;;10.70;;
4553;SDS011;2289;48.316;15.174;2023-03-04T12:17:01;14.80;;;10.77;;
4553;SDS011;2289;48.316;15.174;2023-03-04T12:19:55;9.70;;;7.93;;
4553;SDS011;2289;48.316;15.174;2023-03-04T12:22:33;15.47;;;9.40;;
4553;SDS011;2289;48.316;15.174;2023-03-04T12:31:15;14.37;;;9.53;;
4553;SDS011;2289;48.316;15.174;2023-03-04T12:33:56;18.50;;;12.07;;
4553;SDS011;2289;48.316;15.174;2023-03-04T12:36:32;19.17;;;11.23;;
4553;SDS011;2289;48.316;15.174;2023-03-04T12:39:07;16.90;;;10.30;;
4553;SDS011;2289;48.316;15.174;2023-03-04T12:41:47;17.17;;;10.10;;
4553;SDS011;2289;48.316;15.174;2023-03-04T12:44:17;18.23;;;10.73;;
4553;SDS011;2289;48.316;15.174;2023-03-04T12:46:56;19.57;;;11.90;;
4553;SDS011;2289;48.316;15.174;2023-03-04T12:49:40;15.47;;;11.10;;
4553;SDS011;2289;48.316;15.174;2023-03-04T12:55:36;16.43;;;9.57;;
4553;SDS011;2289;48.316;15.174;2023-03-04T12:58:05;20.20;;;11.93;;
4553;SDS011;2289;48.316;15.174;2023-03-04T13:00:43;21.67;;;11.80;;
4553;SDS011;2289;48.316;15.174;2023-03-04T13:03:20;18.37;;;12.37;;
4553;SDS011;2289;48.316;15.174;2023-03-04T13:05:56;19.40;;;13.30;;
4553;SDS011;2289;48.316;15.174;2023-03-04T13:08:33;23.50;;;12.63;;
4553;SDS011;2289;48.316;15.174;2023-03-04T13:14:23;20.27;;;13.40;;
4553;SDS011;2289;48.316;15.174;2023-03-04T13:16:56;20.40;;;11.90;;
4553;SDS011;2289;48.316;15.174;2023-03-04T13:22:27;17.90;;;12.20;;
4553;SDS011;2289;48.316;15.174;2023-03-04T13:24:58;22.90;;;12.10;;
4553;SDS011;2289;48.316;15.174;2023-03-04T13:31:26;21.17;;;15.40;;
4553;SDS011;2289;48.316;15.174;2023-03-04T13:33:57;21.67;;;13.20;;
4553;SDS011;2289;48.316;15.174;2023-03-04T13:36:30;20.83;;;12.10;;
4553;SDS011;2289;48.316;15.174;2023-03-04T13:39:02;16.87;;;11.47;;
4553;SDS011;2289;48.316;15.174;2023-03-04T13:41:45;22.63;;;12.70;;
4553;SDS011;2289;48.316;15.174;2023-03-04T13:47:20;21.67;;;13.50;;
4553;SDS011;2289;48.316;15.174;2023-03-04T13:53:25;21.07;;;13.37;;
4553;SDS011;2289;48.316;15.174;2023-03-04T13:56:11;21.80;;;12.80;;
4553;SDS011;2289;48.316;15.174;2023-03-04T13:58:47;21.90;;;12.97;;
4553;SDS011;2289;48.316;15.174;2023-03-04T14:01:22;18.00;;;12.20;;
4553;SDS011;2289;48.316;15.174;2023-03-04T14:03:53;22.30;;;13.03;;
4553;SDS011;2289;48.316;15.174;2023-03-04T14:06:23;16.43;;;11.53;;
4553;SDS011;2289;48.316;15.174;2023-03-04T14:08:54;19.47;;;12.40;;
4553;SDS011;2289;48.316;15.174;2023-03-04T14:11:26;21.80;;;14.30;;
4553;SDS011;2289;48.316;15.174;2023-03-04T14:13:57;15.40;;;10.57;;
4553;SDS011;2289;48.316;15.174;2023-03-04T14:16:27;14.50;;;9.87;;
4553;SDS011;2289;48.316;15.174;2023-03-04T14:19:02;13.97;;;9.80;;
4553;SDS011;2289;48.316;15.174;2023-03-04T14:21:32;15.80;;;10.87;;
4553;SDS011;2289;48.316;15.174;2023-03-04T14:24:07;16.23;;;10.30;;
4553;SDS011;2289;48.316;15.174;2023-03-04T14:26:39;15.63;;;10.17;;
4553;SDS011;2289;48.316;15.174;2023-03-04T14:29:21;14.37;;;10.57;;
4553;SDS011;2289;48.316;15.174;2023-03-04T14:31:51;13.87;;;10.60;;
4553;SDS011;2289;48.316;15.174;2023-03-04T14:34:23;12.17;;;9.40;;
4553;SDS011;2289;48.316;15.174;2023-03-04T14:36:53;14.70;;;9.07;;
4553;SDS011;2289;48.316;15.174;2023-03-04T14:39:26;12.93;;;9.80;;
4553;SDS011;2289;48.316;15.174;2023-03-04T14:42:03;16.00;;;11.37;;
4553;SDS011;2289;48.316;15.174;2023-03-04T14:44:35;12.80;;;10.63;;
4553;SDS011;2289;48.316;15.174;2023-03-04T14:47:06;13.40;;;9.77;;
4553;SDS011;2289;48.316;15.174;2023-03-04T14:49:38;12.77;;;9.53;;
4553;SDS011;2289;48.316;15.174;2023-03-04T14:55:00;12.70;;;9.30;;
4553;SDS011;2289;48.316;15.174;2023-03-04T14:57:32;12.43;;;10.00;;
4553;SDS011;2289;48.316;15.174;2023-03-04T15:00:14;16.20;;;9.90;;
4553;SDS011;2289;48.316;15.174;2023-03-04T15:02:47;10.63;;;7.83;;
4553;SDS011;2289;48.316;15.174;2023-03-04T15:05:19;13.43;;;9.23;;
4553;SDS011;2289;48.316;15.174;2023-03-04T15:07:57;13.53;;;9.50;;
4553;SDS011;2289;48.316;15.174;2023-03-04T15:10:29;20.80;;;9.37;;
4553;SDS011;2289;48.316;15.174;2023-03-04T15:12:59;19.03;;;9.67;;
4553;SDS011;2289;48.316;15.174;2023-03-04T15:18:20;11.50;;;8.23;;
4553;SDS011;2289;48.316;15.174;2023-03-04T15:20:55;12.10;;;8.17;;
4553;SDS011;2289;48.316;15.174;2023-03-04T15:23:25;12.20;;;8.90;;
4553;SDS011;2289;48.316;15.174;2023-03-04T15:25:57;14.27;;;8.47;;
4553;SDS011;2289;48.316;15.174;2023-03-04T15:28:29;11.93;;;8.13;;
4553;SDS011;2289;48.316;15.174;2023-03-04T15:30:59;12.53;;;7.50;;
4553;SDS011;2289;48.316;15.174;2023-03-04T15:33:28;10.67;;;8.57;;
4553;SDS011;2289;48.316;15.174;2023-03-04T15:35:58;8.57;;;6.60;;
4553;SDS011;2289;48.316;15.174;2023-03-04T15:38:27;11.10;;;7.63;;
4553;SDS011;2289;48.316;15.174;2023-03-04T15:41:00;10.33;;;7.47;;
4553;SDS011;2289;48.316;15.174;2023-03-04T15:43:29;11.17;;;7.23;;
4553;SDS011;2289;48.316;15.174;2023-03-04T15:45:57;8.40;;;6.23;;
4553;SDS011;2289;48.316;15.174;2023-03-04T15:48:29;8.03;;;5.97;;
4553;SDS011;2289;48.316;15.174;2023-03-04T15:50:59;8.90;;;6.17;;
4553;SDS011;2289;48.316;15.174;2023-03-04T15:53:30;11.40;;;7.93;;
4553;SDS011;2289;48.316;15.174;2023-03-04T15:56:02;9.23;;;6.93;;